Terminal Aerodrome Forecast
Issued by NWS

Home | Current Version | Previous Version | Graphics & Text | Print | Product List | Glossary On
Versions: 1 2 3 4 5 6 7 8 9 10 11 12 13 14 15 16 17 18 19 20 21 22
542
FTUS43 KDVN 250443 AAC
TAFBRL
TAF AMD
KBRL 250443Z 2505/2524 07007KT 5SM -RA BR SCT002 BKN060
      TEMPO 2505/2507 3SM RA BR BKN002
     FM250700 04012KT 4SM -RA BR BKN006 OVC015
     FM251000 04014KT 3SM -RA BR BKN020=

USA.gov is the U.S. government's official web portal to all federal, state and local government web resources and services.